sensor_id;sensor_type;location;lat;lon;timestamp;P1;durP1;ratioP1;P2;durP2;ratioP2
52124;SDS011;38119;52.710;6.398;2022-11-09T00:00:03;9.15;;;2.80;;
52124;SDS011;38119;52.710;6.398;2022-11-09T00:02:29;6.70;;;2.60;;
52124;SDS011;38119;52.710;6.398;2022-11-09T00:04:55;6.38;;;2.33;;
52124;SDS011;38119;52.710;6.398;2022-11-09T00:07:20;7.25;;;2.60;;
52124;SDS011;38119;52.710;6.398;2022-11-09T00:09:46;5.32;;;2.38;;
52124;SDS011;38119;52.710;6.398;2022-11-09T00:12:11;7.78;;;2.83;;
52124;SDS011;38119;52.710;6.398;2022-11-09T00:14:37;6.10;;;2.40;;
52124;SDS011;38119;52.710;6.398;2022-11-09T00:17:03;6.38;;;2.70;;
52124;SDS011;38119;52.710;6.398;2022-11-09T00:19:29;9.32;;;2.50;;
52124;SDS011;38119;52.710;6.398;2022-11-09T00:21:54;7.75;;;2.67;;
52124;SDS011;38119;52.710;6.398;2022-11-09T00:24:20;6.05;;;2.33;;
52124;SDS011;38119;52.710;6.398;2022-11-09T00:26:46;8.65;;;2.65;;
52124;SDS011;38119;52.710;6.398;2022-11-09T00:29:11;5.10;;;2.35;;
52124;SDS011;38119;52.710;6.398;2022-11-09T00:31:37;5.75;;;2.50;;
52124;SDS011;38119;52.710;6.398;2022-11-09T00:34:02;6.35;;;2.40;;
52124;SDS011;38119;52.710;6.398;2022-11-09T00:36:28;7.00;;;2.70;;
52124;SDS011;38119;52.710;6.398;2022-11-09T00:38:55;7.18;;;2.70;;
52124;SDS011;38119;52.710;6.398;2022-11-09T00:41:24;6.28;;;2.35;;
52124;SDS011;38119;52.710;6.398;2022-11-09T00:43:50;7.65;;;2.75;;
52124;SDS011;38119;52.710;6.398;2022-11-09T00:46:16;4.78;;;2.45;;
52124;SDS011;38119;52.710;6.398;2022-11-09T00:48:45;6.30;;;2.40;;
52124;SDS011;38119;52.710;6.398;2022-11-09T00:51:11;6.97;;;2.83;;
52124;SDS011;38119;52.710;6.398;2022-11-09T00:53:37;3.85;;;2.03;;
52124;SDS011;38119;52.710;6.398;2022-11-09T00:56:07;6.32;;;2.85;;
52124;SDS011;38119;52.710;6.398;2022-11-09T00:58:35;5.53;;;2.83;;
52124;SDS011;38119;52.710;6.398;2022-11-09T01:01:06;4.60;;;2.13;;
52124;SDS011;38119;52.710;6.398;2022-11-09T01:03:36;7.80;;;2.50;;
52124;SDS011;38119;52.710;6.398;2022-11-09T01:06:02;9.07;;;2.90;;
52124;SDS011;38119;52.710;6.398;2022-11-09T01:08:28;6.70;;;2.70;;
52124;SDS011;38119;52.710;6.398;2022-11-09T01:10:54;7.45;;;2.33;;
52124;SDS011;38119;52.710;6.398;2022-11-09T01:13:19;7.70;;;2.63;;
52124;SDS011;38119;52.710;6.398;2022-11-09T01:15:46;8.35;;;2.63;;
52124;SDS011;38119;52.710;6.398;2022-11-09T01:18:14;9.70;;;2.80;;
52124;SDS011;38119;52.710;6.398;2022-11-09T01:20:41;13.25;;;2.85;;
52124;SDS011;38119;52.710;6.398;2022-11-09T01:23:10;10.43;;;2.67;;
52124;SDS011;38119;52.710;6.398;2022-11-09T01:25:37;6.38;;;2.58;;
52124;SDS011;38119;52.710;6.398;2022-11-09T01:28:03;8.65;;;2.78;;
52124;SDS011;38119;52.710;6.398;2022-11-09T01:30:29;8.20;;;2.92;;
52124;SDS011;38119;52.710;6.398;2022-11-09T01:32:57;7.82;;;2.80;;
52124;SDS011;38119;52.710;6.398;2022-11-09T01:35:23;9.18;;;3.17;;
52124;SDS011;38119;52.710;6.398;2022-11-09T01:37:48;6.28;;;2.50;;
52124;SDS011;38119;52.710;6.398;2022-11-09T01:40:14;6.20;;;2.42;;
52124;SDS011;38119;52.710;6.398;2022-11-09T01:42:40;8.93;;;2.42;;
52124;SDS011;38119;52.710;6.398;2022-11-09T01:48:07;5.93;;;2.63;;
52124;SDS011;38119;52.710;6.398;2022-11-09T01:50:47;7.43;;;2.53;;
52124;SDS011;38119;52.710;6.398;2022-11-09T01:53:21;8.10;;;2.50;;
52124;SDS011;38119;52.710;6.398;2022-11-09T01:58:23;8.73;;;2.50;;
52124;SDS011;38119;52.710;6.398;2022-11-09T02:00:52;11.05;;;2.75;;
52124;SDS011;38119;52.710;6.398;2022-11-09T02:03:27;9.18;;;2.75;;
52124;SDS011;38119;52.710;6.398;2022-11-09T02:05:59;7.03;;;2.20;;
52124;SDS011;38119;52.710;6.398;2022-11-09T02:08:31;9.50;;;2.35;;
52124;SDS011;38119;52.710;6.398;2022-11-09T02:13:33;9.55;;;2.42;;
52124;SDS011;38119;52.710;6.398;2022-11-09T02:16:02;7.72;;;2.40;;
52124;SDS011;38119;52.710;6.398;2022-11-09T02:18:28;10.20;;;2.35;;
52124;SDS011;38119;52.710;6.398;2022-11-09T02:20:55;8.27;;;2.45;;
52124;SDS011;38119;52.710;6.398;2022-11-09T02:23:23;5.03;;;2.15;;
52124;SDS011;38119;52.710;6.398;2022-11-09T02:26:00;9.75;;;2.70;;
52124;SDS011;38119;52.710;6.398;2022-11-09T02:28:31;9.10;;;2.47;;
52124;SDS011;38119;52.710;6.398;2022-11-09T02:30:58;8.95;;;2.67;;
52124;SDS011;38119;52.710;6.398;2022-11-09T02:33:24;9.60;;;2.85;;
52124;SDS011;38119;52.710;6.398;2022-11-09T02:35:49;10.73;;;2.33;;
52124;SDS011;38119;52.710;6.398;2022-11-09T02:38:15;9.98;;;2.50;;
52124;SDS011;38119;52.710;6.398;2022-11-09T02:40:42;8.63;;;2.40;;
52124;SDS011;38119;52.710;6.398;2022-11-09T02:43:10;10.10;;;2.30;;
52124;SDS011;38119;52.710;6.398;2022-11-09T02:45:38;9.02;;;2.55;;
52124;SDS011;38119;52.710;6.398;2022-11-09T02:48:04;9.20;;;2.13;;
52124;SDS011;38119;52.710;6.398;2022-11-09T02:50:30;6.00;;;2.22;;
52124;SDS011;38119;52.710;6.398;2022-11-09T02:52:56;8.30;;;2.45;;
52124;SDS011;38119;52.710;6.398;2022-11-09T02:55:22;6.72;;;2.13;;
52124;SDS011;38119;52.710;6.398;2022-11-09T02:57:47;11.43;;;2.45;;
52124;SDS011;38119;52.710;6.398;2022-11-09T03:00:13;7.97;;;2.28;;
52124;SDS011;38119;52.710;6.398;2022-11-09T03:02:39;11.75;;;2.67;;
52124;SDS011;38119;52.710;6.398;2022-11-09T03:05:05;7.07;;;2.40;;
52124;SDS011;38119;52.710;6.398;2022-11-09T03:07:34;10.75;;;2.35;;
52124;SDS011;38119;52.710;6.398;2022-11-09T03:10:00;6.60;;;2.20;;
52124;SDS011;38119;52.710;6.398;2022-11-09T03:12:26;6.95;;;2.72;;
52124;SDS011;38119;52.710;6.398;2022-11-09T03:15:02;12.45;;;2.40;;
52124;SDS011;38119;52.710;6.398;2022-11-09T03:17:30;10.23;;;2.20;;
52124;SDS011;38119;52.710;6.398;2022-11-09T03:19:56;12.10;;;2.67;;
52124;SDS011;38119;52.710;6.398;2022-11-09T03:22:22;12.20;;;2.35;;
52124;SDS011;38119;52.710;6.398;2022-11-09T03:24:48;7.20;;;2.38;;
52124;SDS011;38119;52.710;6.398;2022-11-09T03:27:14;8.70;;;2.50;;
52124;SDS011;38119;52.710;6.398;2022-11-09T03:29:40;9.05;;;2.65;;
52124;SDS011;38119;52.710;6.398;2022-11-09T03:32:05;7.10;;;2.53;;
52124;SDS011;38119;52.710;6.398;2022-11-09T03:34:32;11.85;;;2.22;;
52124;SDS011;38119;52.710;6.398;2022-11-09T03:36:58;8.25;;;2.33;;
52124;SDS011;38119;52.710;6.398;2022-11-09T03:39:24;9.88;;;2.67;;
52124;SDS011;38119;52.710;6.398;2022-11-09T03:41:49;9.57;;;2.50;;
52124;SDS011;38119;52.710;6.398;2022-11-09T03:44:15;7.50;;;2.55;;
52124;SDS011;38119;52.710;6.398;2022-11-09T03:46:40;8.50;;;2.47;;
52124;SDS011;38119;52.710;6.398;2022-11-09T03:49:06;10.65;;;2.50;;
52124;SDS011;38119;52.710;6.398;2022-11-09T03:51:32;7.93;;;2.35;;
52124;SDS011;38119;52.710;6.398;2022-11-09T03:53:58;13.57;;;2.47;;
52124;SDS011;38119;52.710;6.398;2022-11-09T03:56:23;12.38;;;2.67;;
52124;SDS011;38119;52.710;6.398;2022-11-09T03:58:49;9.05;;;2.70;;
52124;SDS011;38119;52.710;6.398;2022-11-09T04:01:14;8.90;;;2.30;;
52124;SDS011;38119;52.710;6.398;2022-11-09T04:03:40;9.00;;;2.38;;
52124;SDS011;38119;52.710;6.398;2022-11-09T04:06:06;5.38;;;2.22;;
52124;SDS011;38119;52.710;6.398;2022-11-09T04:08:31;7.28;;;2.30;;
52124;SDS011;38119;52.710;6.398;2022-11-09T04:10:57;8.45;;;2.60;;
52124;SDS011;38119;52.710;6.398;2022-11-09T04:13:22;7.93;;;2.30;;
52124;SDS011;38119;52.710;6.398;2022-11-09T04:15:48;9.20;;;2.60;;
52124;SDS011;38119;52.710;6.398;2022-11-09T04:18:14;6.90;;;2.45;;
52124;SDS011;38119;52.710;6.398;2022-11-09T04:20:41;8.48;;;2.38;;
52124;SDS011;38119;52.710;6.398;2022-11-09T04:23:08;6.20;;;1.98;;
52124;SDS011;38119;52.710;6.398;2022-11-09T04:25:35;6.60;;;2.40;;
52124;SDS011;38119;52.710;6.398;2022-11-09T04:28:03;8.88;;;2.50;;
52124;SDS011;38119;52.710;6.398;2022-11-09T04:30:31;8.25;;;2.10;;
52124;SDS011;38119;52.710;6.398;2022-11-09T04:32:58;6.55;;;2.08;;
52124;SDS011;38119;52.710;6.398;2022-11-09T04:35:25;10.70;;;2.53;;
52124;SDS011;38119;52.710;6.398;2022-11-09T04:37:53;9.07;;;2.50;;
52124;SDS011;38119;52.710;6.398;2022-11-09T04:40:23;10.88;;;2.45;;
52124;SDS011;38119;52.710;6.398;2022-11-09T04:42:50;7.45;;;2.42;;
52124;SDS011;38119;52.710;6.398;2022-11-09T04:45:16;9.65;;;2.38;;
52124;SDS011;38119;52.710;6.398;2022-11-09T04:47:42;9.25;;;2.80;;
52124;SDS011;38119;52.710;6.398;2022-11-09T04:50:08;8.65;;;2.42;;
52124;SDS011;38119;52.710;6.398;2022-11-09T04:52:34;8.63;;;2.50;;
52124;SDS011;38119;52.710;6.398;2022-11-09T04:54:59;6.78;;;2.30;;
52124;SDS011;38119;52.710;6.398;2022-11-09T04:57:25;5.82;;;2.20;;
52124;SDS011;38119;52.710;6.398;2022-11-09T04:59:51;8.20;;;2.40;;
52124;SDS011;38119;52.710;6.398;2022-11-09T05:02:17;8.07;;;2.40;;
52124;SDS011;38119;52.710;6.398;2022-11-09T05:04:42;9.55;;;2.47;;
52124;SDS011;38119;52.710;6.398;2022-11-09T05:07:08;9.43;;;2.60;;
52124;SDS011;38119;52.710;6.398;2022-11-09T05:09:34;6.75;;;2.20;;
52124;SDS011;38119;52.710;6.398;2022-11-09T05:11:59;8.20;;;2.35;;
52124;SDS011;38119;52.710;6.398;2022-11-09T05:14:25;7.85;;;2.30;;
52124;SDS011;38119;52.710;6.398;2022-11-09T05:16:50;7.90;;;2.53;;
52124;SDS011;38119;52.710;6.398;2022-11-09T05:19:16;7.70;;;2.33;;
52124;SDS011;38119;52.710;6.398;2022-11-09T05:21:41;4.68;;;2.08;;
52124;SDS011;38119;52.710;6.398;2022-11-09T05:24:07;9.85;;;2.50;;
52124;SDS011;38119;52.710;6.398;2022-11-09T05:26:34;7.63;;;2.58;;
52124;SDS011;38119;52.710;6.398;2022-11-09T05:29:02;7.03;;;2.35;;
52124;SDS011;38119;52.710;6.398;2022-11-09T05:31:29;8.60;;;2.53;;
52124;SDS011;38119;52.710;6.398;2022-11-09T05:34:14;10.30;;;2.90;;
52124;SDS011;38119;52.710;6.398;2022-11-09T05:36:40;8.52;;;2.70;;
52124;SDS011;38119;52.710;6.398;2022-11-09T05:39:05;9.32;;;2.22;;
52124;SDS011;38119;52.710;6.398;2022-11-09T05:41:31;10.18;;;2.50;;
52124;SDS011;38119;52.710;6.398;2022-11-09T05:43:57;8.15;;;2.25;;
52124;SDS011;38119;52.710;6.398;2022-11-09T05:46:22;8.13;;;2.25;;
52124;SDS011;38119;52.710;6.398;2022-11-09T05:48:49;6.47;;;2.08;;
52124;SDS011;38119;52.710;6.398;2022-11-09T05:51:14;7.60;;;2.10;;
52124;SDS011;38119;52.710;6.398;2022-11-09T05:53:40;9.13;;;2.45;;
52124;SDS011;38119;52.710;6.398;2022-11-09T05:56:07;6.30;;;2.08;;
52124;SDS011;38119;52.710;6.398;2022-11-09T05:58:34;7.00;;;2.42;;
52124;SDS011;38119;52.710;6.398;2022-11-09T06:01:03;13.15;;;2.85;;
52124;SDS011;38119;52.710;6.398;2022-11-09T06:03:30;8.13;;;2.35;;
52124;SDS011;38119;52.710;6.398;2022-11-09T06:05:58;8.68;;;2.20;;
52124;SDS011;38119;52.710;6.398;2022-11-09T06:08:27;8.27;;;2.40;;
52124;SDS011;38119;52.710;6.398;2022-11-09T06:11:00;9.55;;;2.30;;
52124;SDS011;38119;52.710;6.398;2022-11-09T06:13:30;7.32;;;2.10;;
52124;SDS011;38119;52.710;6.398;2022-11-09T06:15:57;9.70;;;2.53;;
52124;SDS011;38119;52.710;6.398;2022-11-09T06:18:25;12.52;;;2.15;;
52124;SDS011;38119;52.710;6.398;2022-11-09T06:20:52;9.40;;;2.20;;
52124;SDS011;38119;52.710;6.398;2022-11-09T06:27:00;7.55;;;2.03;;
52124;SDS011;38119;52.710;6.398;2022-11-09T06:29:26;6.90;;;1.90;;
52124;SDS011;38119;52.710;6.398;2022-11-09T06:31:58;12.35;;;2.30;;
52124;SDS011;38119;52.710;6.398;2022-11-09T06:34:23;10.30;;;2.20;;
52124;SDS011;38119;52.710;6.398;2022-11-09T06:36:49;9.55;;;2.60;;
52124;SDS011;38119;52.710;6.398;2022-11-09T06:39:15;9.00;;;2.55;;
52124;SDS011;38119;52.710;6.398;2022-11-09T06:41:40;7.43;;;1.90;;
52124;SDS011;38119;52.710;6.398;2022-11-09T06:44:06;8.60;;;2.05;;
52124;SDS011;38119;52.710;6.398;2022-11-09T06:46:32;11.20;;;2.40;;
52124;SDS011;38119;52.710;6.398;2022-11-09T06:48:58;9.40;;;2.22;;
52124;SDS011;38119;52.710;6.398;2022-11-09T06:51:24;6.55;;;2.08;;
52124;SDS011;38119;52.710;6.398;2022-11-09T06:53:49;8.27;;;2.10;;
52124;SDS011;38119;52.710;6.398;2022-11-09T06:56:15;9.15;;;2.20;;
52124;SDS011;38119;52.710;6.398;2022-11-09T06:58:41;15.20;;;3.10;;
52124;SDS011;38119;52.710;6.398;2022-11-09T07:01:11;11.15;;;2.80;;
52124;SDS011;38119;52.710;6.398;2022-11-09T07:03:40;8.25;;;2.50;;
52124;SDS011;38119;52.710;6.398;2022-11-09T07:06:06;8.85;;;2.33;;
52124;SDS011;38119;52.710;6.398;2022-11-09T07:08:33;12.27;;;2.30;;
52124;SDS011;38119;52.710;6.398;2022-11-09T07:11:03;13.15;;;3.38;;
52124;SDS011;38119;52.710;6.398;2022-11-09T07:13:34;12.27;;;2.35;;
52124;SDS011;38119;52.710;6.398;2022-11-09T07:15:59;8.90;;;2.20;;
52124;SDS011;38119;52.710;6.398;2022-11-09T07:18:25;12.48;;;2.90;;
52124;SDS011;38119;52.710;6.398;2022-11-09T07:20:51;12.18;;;2.67;;
52124;SDS011;38119;52.710;6.398;2022-11-09T07:23:17;10.45;;;2.53;;
52124;SDS011;38119;52.710;6.398;2022-11-09T07:25:43;15.07;;;2.95;;
52124;SDS011;38119;52.710;6.398;2022-11-09T07:28:09;10.05;;;2.50;;
52124;SDS011;38119;52.710;6.398;2022-11-09T07:30:36;9.50;;;2.45;;
52124;SDS011;38119;52.710;6.398;2022-11-09T07:33:02;7.10;;;2.47;;
52124;SDS011;38119;52.710;6.398;2022-11-09T07:35:35;13.65;;;3.17;;
52124;SDS011;38119;52.710;6.398;2022-11-09T07:38:01;9.68;;;2.50;;
52124;SDS011;38119;52.710;6.398;2022-11-09T07:40:27;12.48;;;3.22;;
52124;SDS011;38119;52.710;6.398;2022-11-09T07:42:56;8.77;;;2.40;;
52124;SDS011;38119;52.710;6.398;2022-11-09T07:45:22;11.20;;;2.65;;
52124;SDS011;38119;52.710;6.398;2022-11-09T07:47:48;11.52;;;2.65;;
52124;SDS011;38119;52.710;6.398;2022-11-09T07:50:13;13.93;;;2.63;;
52124;SDS011;38119;52.710;6.398;2022-11-09T07:52:39;10.07;;;2.70;;
52124;SDS011;38119;52.710;6.398;2022-11-09T07:55:05;11.40;;;2.55;;
52124;SDS011;38119;52.710;6.398;2022-11-09T07:57:31;12.52;;;3.05;;
52124;SDS011;38119;52.710;6.398;2022-11-09T07:59:56;10.23;;;3.03;;
52124;SDS011;38119;52.710;6.398;2022-11-09T08:02:23;12.68;;;2.80;;
52124;SDS011;38119;52.710;6.398;2022-11-09T08:04:48;11.45;;;3.08;;
52124;SDS011;38119;52.710;6.398;2022-11-09T08:07:14;8.00;;;2.67;;
52124;SDS011;38119;52.710;6.398;2022-11-09T08:09:39;10.43;;;2.40;;
52124;SDS011;38119;52.710;6.398;2022-11-09T08:12:05;10.13;;;2.55;;
52124;SDS011;38119;52.710;6.398;2022-11-09T08:14:31;13.07;;;2.90;;
52124;SDS011;38119;52.710;6.398;2022-11-09T08:16:57;12.80;;;3.00;;
52124;SDS011;38119;52.710;6.398;2022-11-09T08:19:23;12.45;;;2.63;;
52124;SDS011;38119;52.710;6.398;2022-11-09T08:21:48;12.48;;;3.40;;
52124;SDS011;38119;52.710;6.398;2022-11-09T08:24:14;15.25;;;2.88;;
52124;SDS011;38119;52.710;6.398;2022-11-09T08:26:40;13.32;;;3.15;;
52124;SDS011;38119;52.710;6.398;2022-11-09T08:29:05;12.27;;;2.72;;
52124;SDS011;38119;52.710;6.398;2022-11-09T08:31:31;14.38;;;2.85;;
52124;SDS011;38119;52.710;6.398;2022-11-09T08:33:56;14.05;;;2.85;;
52124;SDS011;38119;52.710;6.398;2022-11-09T08:36:22;10.02;;;2.70;;
52124;SDS011;38119;52.710;6.398;2022-11-09T08:38:50;13.38;;;2.78;;
52124;SDS011;38119;52.710;6.398;2022-11-09T08:41:15;10.60;;;2.90;;
52124;SDS011;38119;52.710;6.398;2022-11-09T08:43:41;10.95;;;2.92;;
52124;SDS011;38119;52.710;6.398;2022-11-09T08:46:06;10.65;;;2.65;;
52124;SDS011;38119;52.710;6.398;2022-11-09T08:48:32;10.52;;;2.90;;
52124;SDS011;38119;52.710;6.398;2022-11-09T08:50:58;13.80;;;2.70;;
52124;SDS011;38119;52.710;6.398;2022-11-09T08:53:25;12.50;;;3.13;;
52124;SDS011;38119;52.710;6.398;2022-11-09T08:55:52;10.98;;;2.67;;
52124;SDS011;38119;52.710;6.398;2022-11-09T08:58:17;15.32;;;2.83;;
52124;SDS011;38119;52.710;6.398;2022-11-09T09:00:44;10.40;;;3.03;;
52124;SDS011;38119;52.710;6.398;2022-11-09T09:03:09;12.18;;;2.85;;
52124;SDS011;38119;52.710;6.398;2022-11-09T09:05:35;10.82;;;2.95;;
52124;SDS011;38119;52.710;6.398;2022-11-09T09:08:02;13.75;;;3.25;;
52124;SDS011;38119;52.710;6.398;2022-11-09T09:10:28;14.35;;;3.53;;
52124;SDS011;38119;52.710;6.398;2022-11-09T09:12:54;13.23;;;3.00;;
52124;SDS011;38119;52.710;6.398;2022-11-09T09:15:20;9.60;;;2.92;;
52124;SDS011;38119;52.710;6.398;2022-11-09T09:17:46;17.88;;;3.30;;
52124;SDS011;38119;52.710;6.398;2022-11-09T09:20:12;14.75;;;3.28;;
52124;SDS011;38119;52.710;6.398;2022-11-09T09:22:37;14.00;;;3.00;;
52124;SDS011;38119;52.710;6.398;2022-11-09T09:25:04;10.70;;;3.38;;
52124;SDS011;38119;52.710;6.398;2022-11-09T09:27:30;10.70;;;3.30;;
52124;SDS011;38119;52.710;6.398;2022-11-09T09:29:56;12.50;;;3.15;;
52124;SDS011;38119;52.710;6.398;2022-11-09T09:32:22;9.50;;;2.92;;
52124;SDS011;38119;52.710;6.398;2022-11-09T09:34:49;13.50;;;3.15;;
52124;SDS011;38119;52.710;6.398;2022-11-09T09:37:15;10.85;;;2.80;;
52124;SDS011;38119;52.710;6.398;2022-11-09T09:39:41;12.75;;;3.00;;
52124;SDS011;38119;52.710;6.398;2022-11-09T09:42:09;12.95;;;3.08;;
52124;SDS011;38119;52.710;6.398;2022-11-09T09:45:04;11.20;;;3.20;;
52124;SDS011;38119;52.710;6.398;2022-11-09T09:53:03;14.05;;;3.28;;
52124;SDS011;38119;52.710;6.398;2022-11-09T09:55:42;14.95;;;3.35;;
52124;SDS011;38119;52.710;6.398;2022-11-09T09:58:27;11.73;;;3.17;;
52124;SDS011;38119;52.710;6.398;2022-11-09T10:01:05;15.02;;;3.28;;
52124;SDS011;38119;52.710;6.398;2022-11-09T10:03:44;9.63;;;3.40;;
52124;SDS011;38119;52.710;6.398;2022-11-09T10:29:14;11.52;;;2.97;;
52124;SDS011;38119;52.710;6.398;2022-11-09T10:31:44;9.38;;;3.50;;
52124;SDS011;38119;52.710;6.398;2022-11-09T10:34:19;13.40;;;3.50;;
52124;SDS011;38119;52.710;6.398;2022-11-09T10:36:55;12.75;;;3.17;;
52124;SDS011;38119;52.710;6.398;2022-11-09T10:39:22;10.27;;;3.38;;
52124;SDS011;38119;52.710;6.398;2022-11-09T10:41:49;11.27;;;3.00;;
52124;SDS011;38119;52.710;6.398;2022-11-09T10:44:20;16.60;;;3.78;;
52124;SDS011;38119;52.710;6.398;2022-11-09T10:47:06;7.45;;;2.80;;
52124;SDS011;38119;52.710;6.398;2022-11-09T10:49:34;15.38;;;3.33;;
52124;SDS011;38119;52.710;6.398;2022-11-09T10:52:01;11.40;;;3.20;;
52124;SDS011;38119;52.710;6.398;2022-11-09T10:54:28;7.97;;;3.10;;
52124;SDS011;38119;52.710;6.398;2022-11-09T10:59:48;11.57;;;2.88;;
52124;SDS011;38119;52.710;6.398;2022-11-09T11:04:50;9.57;;;2.78;;
52124;SDS011;38119;52.710;6.398;2022-11-09T11:07:34;10.77;;;2.45;;
52124;SDS011;38119;52.710;6.398;2022-11-09T11:12:44;12.50;;;2.83;;
52124;SDS011;38119;52.710;6.398;2022-11-09T11:15:37;9.65;;;2.22;;
52124;SDS011;38119;52.710;6.398;2022-11-09T11:18:04;12.65;;;2.72;;
52124;SDS011;38119;52.710;6.398;2022-11-09T11:20:47;10.18;;;2.40;;
52124;SDS011;38119;52.710;6.398;2022-11-09T11:23:28;10.88;;;2.60;;
52124;SDS011;38119;52.710;6.398;2022-11-09T11:25:56;9.35;;;2.63;;
52124;SDS011;38119;52.710;6.398;2022-11-09T11:28:32;10.02;;;2.50;;
52124;SDS011;38119;52.710;6.398;2022-11-09T11:30:59;6.57;;;2.13;;
52124;SDS011;38119;52.710;6.398;2022-11-09T11:33:25;10.10;;;2.33;;
52124;SDS011;38119;52.710;6.398;2022-11-09T11:44:36;11.07;;;2.90;;
52124;SDS011;38119;52.710;6.398;2022-11-09T11:49:51;9.52;;;2.50;;
52124;SDS011;38119;52.710;6.398;2022-11-09T12:01:06;14.48;;;3.15;;
52124;SDS011;38119;52.710;6.398;2022-11-09T12:04:15;9.65;;;2.53;;
52124;SDS011;38119;52.710;6.398;2022-11-09T12:06:55;10.05;;;2.50;;
52124;SDS011;38119;52.710;6.398;2022-11-09T12:09:28;11.63;;;3.03;;
52124;SDS011;38119;52.710;6.398;2022-11-09T12:22:40;9.73;;;2.67;;
52124;SDS011;38119;52.710;6.398;2022-11-09T12:25:30;11.43;;;2.88;;
52124;SDS011;38119;52.710;6.398;2022-11-09T12:33:54;9.88;;;2.60;;
52124;SDS011;38119;52.710;6.398;2022-11-09T12:36:32;10.02;;;2.35;;
52124;SDS011;38119;52.710;6.398;2022-11-09T12:39:05;8.88;;;2.90;;
52124;SDS011;38119;52.710;6.398;2022-11-09T12:41:35;8.48;;;2.40;;
52124;SDS011;38119;52.710;6.398;2022-11-09T12:44:03;9.43;;;2.88;;
52124;SDS011;38119;52.710;6.398;2022-11-09T12:46:37;11.05;;;2.85;;
52124;SDS011;38119;52.710;6.398;2022-11-09T12:49:08;9.13;;;2.40;;
52124;SDS011;38119;52.710;6.398;2022-11-09T12:51:54;10.32;;;2.20;;
52124;SDS011;38119;52.710;6.398;2022-11-09T12:54:20;6.93;;;2.45;;
52124;SDS011;38119;52.710;6.398;2022-11-09T12:57:20;8.00;;;2.40;;
52124;SDS011;38119;52.710;6.398;2022-11-09T12:59:45;9.45;;;2.47;;
52124;SDS011;38119;52.710;6.398;2022-11-09T13:02:22;6.35;;;2.33;;
52124;SDS011;38119;52.710;6.398;2022-11-09T13:04:56;6.07;;;2.10;;
52124;SDS011;38119;52.710;6.398;2022-11-09T13:09:54;8.68;;;2.15;;
52124;SDS011;38119;52.710;6.398;2022-11-09T13:15:26;8.40;;;2.15;;
52124;SDS011;38119;52.710;6.398;2022-11-09T13:17:57;6.57;;;2.00;;
52124;SDS011;38119;52.710;6.398;2022-11-09T13:20:50;7.25;;;1.80;;
52124;SDS011;38119;52.710;6.398;2022-11-09T13:25:54;8.63;;;1.92;;
52124;SDS011;38119;52.710;6.398;2022-11-09T13:30:56;4.57;;;1.67;;
52124;SDS011;38119;52.710;6.398;2022-11-09T13:35:58;5.90;;;1.60;;
52124;SDS011;38119;52.710;6.398;2022-11-09T13:38:30;5.18;;;1.30;;
52124;SDS011;38119;52.710;6.398;2022-11-09T13:40:57;6.30;;;1.40;;
52124;SDS011;38119;52.710;6.398;2022-11-09T13:48:38;3.75;;;1.83;;
52124;SDS011;38119;52.710;6.398;2022-11-09T13:56:14;4.93;;;1.65;;
52124;SDS011;38119;52.710;6.398;2022-11-09T13:58:43;7.13;;;1.80;;
52124;SDS011;38119;52.710;6.398;2022-11-09T14:01:31;5.18;;;1.73;;
52124;SDS011;38119;52.710;6.398;2022-11-09T14:04:22;8.77;;;2.05;;
52124;SDS011;38119;52.710;6.398;2022-11-09T14:07:09;6.80;;;2.20;;
52124;SDS011;38119;52.710;6.398;2022-11-09T14:12:36;9.07;;;2.28;;
52124;SDS011;38119;52.710;6.398;2022-11-09T14:22:55;8.27;;;2.03;;
52124;SDS011;38119;52.710;6.398;2022-11-09T14:25:21;5.70;;;2.10;;
52124;SDS011;38119;52.710;6.398;2022-11-09T14:27:49;6.50;;;2.25;;
52124;SDS011;38119;52.710;6.398;2022-11-09T14:30:30;6.03;;;2.08;;
52124;SDS011;38119;52.710;6.398;2022-11-09T14:32:56;5.82;;;2.22;;
52124;SDS011;38119;52.710;6.398;2022-11-09T14:35:24;6.90;;;1.98;;
52124;SDS011;38119;52.710;6.398;2022-11-09T14:37:55;6.03;;;2.35;;
52124;SDS011;38119;52.710;6.398;2022-11-09T14:42:57;5.55;;;2.45;;
52124;SDS011;38119;52.710;6.398;2022-11-09T14:45:24;6.18;;;1.80;;
52124;SDS011;38119;52.710;6.398;2022-11-09T14:47:52;7.60;;;2.33;;
52124;SDS011;38119;52.710;6.398;2022-11-09T14:52:51;8.23;;;2.30;;
52124;SDS011;38119;52.710;6.398;2022-11-09T14:55:19;6.75;;;2.10;;
52124;SDS011;38119;52.710;6.398;2022-11-09T14:57:46;6.65;;;2.30;;
52124;SDS011;38119;52.710;6.398;2022-11-09T15:02:59;9.40;;;2.40;;
52124;SDS011;38119;52.710;6.398;2022-11-09T15:05:44;4.20;;;1.60;;
52124;SDS011;38119;52.710;6.398;2022-11-09T15:08:18;6.28;;;1.88;;
52124;SDS011;38119;52.710;6.398;2022-11-09T15:10:49;7.70;;;2.25;;
52124;SDS011;38119;52.710;6.398;2022-11-09T15:13:16;7.28;;;1.95;;
52124;SDS011;38119;52.710;6.398;2022-11-09T15:16:01;6.10;;;2.17;;
52124;SDS011;38119;52.710;6.398;2022-11-09T15:18:33;10.15;;;1.90;;
52124;SDS011;38119;52.710;6.398;2022-11-09T15:21:17;7.20;;;2.38;;
52124;SDS011;38119;52.710;6.398;2022-11-09T15:23:49;6.78;;;2.25;;
52124;SDS011;38119;52.710;6.398;2022-11-09T15:29:00;6.78;;;2.13;;
52124;SDS011;38119;52.710;6.398;2022-11-09T15:31:27;5.65;;;1.85;;
52124;SDS011;38119;52.710;6.398;2022-11-09T15:33:56;6.85;;;1.85;;
52124;SDS011;38119;52.710;6.398;2022-11-09T15:36:29;7.85;;;2.00;;
52124;SDS011;38119;52.710;6.398;2022-11-09T15:41:23;7.82;;;2.20;;
52124;SDS011;38119;52.710;6.398;2022-11-09T15:43:49;7.45;;;2.00;;
52124;SDS011;38119;52.710;6.398;2022-11-09T15:46:19;5.38;;;1.90;;
52124;SDS011;38119;52.710;6.398;2022-11-09T15:48:50;8.00;;;2.30;;
52124;SDS011;38119;52.710;6.398;2022-11-09T15:51:16;6.85;;;1.92;;
52124;SDS011;38119;52.710;6.398;2022-11-09T15:53:43;7.97;;;1.90;;
52124;SDS011;38119;52.710;6.398;2022-11-09T15:56:10;6.45;;;1.80;;
52124;SDS011;38119;52.710;6.398;2022-11-09T15:58:45;7.68;;;2.22;;
52124;SDS011;38119;52.710;6.398;2022-11-09T16:01:13;7.35;;;1.83;;
52124;SDS011;38119;52.710;6.398;2022-11-09T16:03:39;9.25;;;2.25;;
52124;SDS011;38119;52.710;6.398;2022-11-09T16:06:07;7.68;;;2.38;;
52124;SDS011;38119;52.710;6.398;2022-11-09T16:08:39;8.18;;;2.10;;
52124;SDS011;38119;52.710;6.398;2022-11-09T16:11:04;10.43;;;2.15;;
52124;SDS011;38119;52.710;6.398;2022-11-09T16:13:31;7.25;;;2.05;;
52124;SDS011;38119;52.710;6.398;2022-11-09T16:16:01;7.38;;;2.08;;
52124;SDS011;38119;52.710;6.398;2022-11-09T16:18:29;7.53;;;2.50;;
52124;SDS011;38119;52.710;6.398;2022-11-09T16:20:54;6.78;;;1.90;;
52124;SDS011;38119;52.710;6.398;2022-11-09T16:23:20;6.47;;;2.10;;
52124;SDS011;38119;52.710;6.398;2022-11-09T16:25:46;8.15;;;2.35;;
52124;SDS011;38119;52.710;6.398;2022-11-09T16:28:11;8.55;;;2.17;;
52124;SDS011;38119;52.710;6.398;2022-11-09T16:30:37;11.20;;;2.17;;
52124;SDS011;38119;52.710;6.398;2022-11-09T16:33:03;10.30;;;2.30;;
52124;SDS011;38119;52.710;6.398;2022-11-09T16:35:28;8.57;;;2.20;;
52124;SDS011;38119;52.710;6.398;2022-11-09T16:37:54;5.88;;;2.20;;
52124;SDS011;38119;52.710;6.398;2022-11-09T16:40:22;7.90;;;2.13;;
52124;SDS011;38119;52.710;6.398;2022-11-09T16:42:47;7.97;;;2.17;;
52124;SDS011;38119;52.710;6.398;2022-11-09T16:48:13;6.53;;;2.20;;
52124;SDS011;38119;52.710;6.398;2022-11-09T16:50:41;5.95;;;2.10;;
52124;SDS011;38119;52.710;6.398;2022-11-09T16:53:07;10.85;;;2.70;;
52124;SDS011;38119;52.710;6.398;2022-11-09T16:55:33;10.85;;;2.75;;
52124;SDS011;38119;52.710;6.398;2022-11-09T16:57:59;8.35;;;2.53;;
52124;SDS011;38119;52.710;6.398;2022-11-09T17:00:25;10.60;;;2.72;;
52124;SDS011;38119;52.710;6.398;2022-11-09T17:02:51;6.88;;;2.40;;
52124;SDS011;38119;52.710;6.398;2022-11-09T17:05:17;9.07;;;2.15;;